Airfield :
LOGIN :

Register | Disclaimer

   EN    FR    IT 

 










Legend :    VFR   Marginal VFR   IFR   Intensive IFR   Very Intensive IFR
Visi :
Ceiling :
>= 8 km
>= 3000ft
5 to 8 km
1000 to 3000 ft
1500m to 5 km
500 to 1000 ft
800 to 1500m
200 to 500 ft
< 800m
< 200 ft
Symbols :   Thunderstorms  Fog  Heavy snow  Heavy precipitations  Wind > 20 kt
SIGMETs :     Misc.  Thunderstorms  Icing  Turbulence  Mountain Waves  Volcanic Ashes







- Airport Elevation : 357 ft
- IATA code : TUF
- Download approach charts


LFOT - Tours

CURRENT METAR :
  • 191200Z AUTO 24010KT 200V270 CAVOK 25/10 Q1016 NOSIG

EXPIRED METARs :
  • 191130Z AUTO 26009KT 220V300 CAVOK 25/11 Q1016 NOSIG
  • 191100Z AUTO 23008KT 130V270 CAVOK 24/11 Q1016 NOSIG
  • 191030Z AUTO 23009KT 180V310 CAVOK 24/12 Q1016 NOSIG
  • 191000Z AUTO 24010KT 210V270 CAVOK 23/12 Q1016 NOSIG
  • 190930Z AUTO 23009KT 190V260 CAVOK 22/13 Q1016 NOSIG

TAF TAF LFOT
Valid from the 19 at 12:00 until the 20 at 12:00 UTC


191100Z 1912/2012 24008KT CAVOK
BECMG 1918/1920 VRB04KT
BECMG 2008/2010 24010KT
PROB30
TEMPO 2008/2010 BKN014
PROB30
TEMPO 2011/2012 24010G20KT
No reported NOTAMs for that airfield.



MET'MAP, your aeronautical weather chart ! - Copyright ORBIFLY December 2007 - Disclaimer

ORBIFLY MET'MAP TEAM :

Programming & Development : Alexandra Zaïnal
Concept & Development : Baudouin d'Aumeries
Co-Development & Prog : Marc-Olivier Méhu
Technical & hardware support : Manuel Goepfert

Contact : metmap@orbifly.com




SOURCES & CREDITS :

   NOAA